KHVR/HVR METAR and TAF weather

Enter ICAO airport designator
Station Type Date Time Source
KHVR METAR 2021/04/13 22:53 UTC NOAA

KHVR 132253Z AUTO 36007KT 10SM BKN040 OVC055 02/M06 A3042 RMK AO2 SNB23E42 SLP332 P0000 T00221056


Station Type Date Time Source
KHVR Decoded METAR 2021/04/13 22:53 UTC NOAA

HAVRE CITY-COUNTY AIRPORT, MT, United States (KHVR) 48-33N 109-46W 787M
Apr 13, 2021 - 06:53 PM EDT / 2021.04.13 2253 UTC
Wind: from the N (360 degrees) at 8 MPH (7 KT):0
Visibility: 10 mile(s):0
Sky conditions: overcast
Precipitation last hour: A trace
Temperature: 36.0 F (2.2 C)
Dew Point: 21.9 F (-5.6 C)
Relative Humidity: 56%
Pressure (altimeter): 30.42 in. Hg (1030 hPa)
ob: KHVR 132253Z AUTO 36007KT 10SM BKN040 OVC055 02/M06 A3042 RMK AO2 SNB23E42 SLP332 P0000 T00221056
cycle: 23

Station Type Date Time Source
KHVR TAF 2021/04/13 19:12 UTC NOAA

TAF
AMD KHVR 131911Z 1319/1418 01012G21KT P6SM SCT030 OVC045
TEMPO 1319/1323 4SM -SN OVC020
FM132300 02013G22KT 4SM -SHSN OVC025
FM140200 06008KT P6SM VCSH OVC015
TEMPO 1403/1405 4SM -SN BR OVC009
FM141000 VRB05KT 4SM -SHSN OVC008

Example: see airport list